createdAt,value
2023-01-12T00:02:24.299Z,102051.48
2023-01-12T00:04:52.627Z,102038.64
2023-01-12T00:07:21.438Z,102044.41
2023-01-12T00:09:49.607Z,102041.42
2023-01-12T00:12:17.791Z,102040.02
2023-01-12T00:14:46.200Z,102028.28
2023-01-12T00:17:17.331Z,102026.73
2023-01-12T00:19:45.493Z,102019.58
2023-01-12T00:22:14.182Z,102013.80
2023-01-12T00:24:44.948Z,102014.69
2023-01-12T00:27:16.397Z,102006.48
2023-01-12T00:29:44.859Z,102002.10
2023-01-12T00:32:20.404Z,101997.92
2023-01-12T00:34:49.009Z,101999.32
2023-01-12T00:37:17.416Z,102008.80
2023-01-12T00:39:56.780Z,101998.64
2023-01-12T00:42:48.747Z,102000.75
2023-01-12T00:45:22.972Z,102001.63
2023-01-12T00:47:51.980Z,102013.05
2023-01-12T00:50:20.339Z,102022.02
2023-01-12T00:52:48.720Z,102027.11
2023-01-12T00:55:17.315Z,102024.45
2023-01-12T00:57:46.105Z,102023.25
2023-01-12T01:00:15.613Z,102020.98
2023-01-12T01:02:44.007Z,102015.14
2023-01-12T01:05:12.290Z,102011.29
2023-01-12T01:07:40.867Z,102003.53
2023-01-12T01:10:10.970Z,102005.08
2023-01-12T01:12:39.380Z,102001.92
2023-01-12T01:15:08.738Z,102009.12
2023-01-12T01:17:37.272Z,102003.87
2023-01-12T01:20:06.237Z,102000.20
2023-01-12T01:22:34.351Z,101997.74
2023-01-12T01:25:02.728Z,101999.17
2023-01-12T01:27:31.218Z,101989.89
2023-01-12T01:29:59.501Z,101991.82
2023-01-12T01:32:27.685Z,101995.52
2023-01-12T01:34:55.963Z,101987.64
2023-01-12T01:37:24.551Z,101987.27
2023-01-12T01:39:52.966Z,101986.56
2023-01-12T01:42:30.357Z,101989.77
2023-01-12T01:45:01.583Z,101983.64
2023-01-12T01:47:39.779Z,101981.54
2023-01-12T01:50:23.108Z,101984.70
2023-01-12T01:52:58.574Z,101982.63
2023-01-12T01:55:34.161Z,101982.81
2023-01-12T01:58:17.018Z,101985.97
2023-01-12T02:00:46.674Z,101994.55
2023-01-12T02:03:16.631Z,101996.11
2023-01-12T02:05:49.149Z,101987.52
2023-01-12T02:08:23.551Z,101986.13
2023-01-12T02:10:53.432Z,101978.46
2023-01-12T02:13:41.559Z,101974.27
2023-01-12T02:16:29.261Z,101971.81
2023-01-12T02:19:06.519Z,101975.31
2023-01-12T02:21:53.429Z,101971.09
2023-01-12T02:24:35.726Z,101968.99
2023-01-12T02:27:03.907Z,101961.65
2023-01-12T02:29:35.051Z,101960.96
2023-01-12T02:32:13.055Z,101963.98
2023-01-12T02:35:19.521Z,101961.75
2023-01-12T02:38:00.079Z,101961.62
2023-01-12T02:40:41.770Z,101961.81
2023-01-12T02:43:30.422Z,101961.31
2023-01-12T02:46:17.937Z,101954.89
2023-01-12T02:48:56.135Z,101955.44
2023-01-12T02:51:39.576Z,101958.46
2023-01-12T02:54:12.523Z,101952.17
2023-01-12T02:56:50.878Z,101951.49
2023-01-12T02:59:29.123Z,101948.17
2023-01-12T03:02:03.323Z,101955.52
2023-01-12T03:04:33.098Z,101958.99
2023-01-12T03:07:01.284Z,101967.87
2023-01-12T03:09:41.848Z,101959.08
2023-01-12T03:12:19.144Z,101957.64
2023-01-12T03:14:49.975Z,101952.34
2023-01-12T03:17:37.200Z,101950.03
2023-01-12T03:20:16.831Z,101949.30
2023-01-12T03:22:47.335Z,101951.73
2023-01-12T03:25:18.487Z,101947.64
2023-01-12T03:27:51.878Z,101940.60
2023-01-12T03:30:25.004Z,101940.95
2023-01-12T03:32:53.796Z,101940.71
2023-01-12T03:35:27.914Z,101942.93
2023-01-12T03:38:08.171Z,101941.84
2023-01-12T03:40:43.932Z,101951.05
2023-01-12T03:43:21.420Z,101957.83
2023-01-12T03:46:19.340Z,101957.65
2023-01-12T03:49:06.484Z,101950.81
2023-01-12T03:51:40.808Z,101954.08
2023-01-12T03:54:11.258Z,101951.25
2023-01-12T03:56:41.806Z,101951.42
2023-01-12T03:59:10.355Z,101950.04
2023-01-12T04:01:38.792Z,101950.10
2023-01-12T04:04:07.791Z,101951.02
2023-01-12T04:06:36.123Z,101961.58
2023-01-12T04:09:04.407Z,101967.77
2023-01-12T04:11:51.318Z,101956.38
2023-01-12T04:14:19.593Z,101954.11
2023-01-12T04:16:47.670Z,101954.16
2023-01-12T04:19:16.166Z,101946.48
2023-01-12T04:22:03.780Z,101949.15
2023-01-12T04:24:32.169Z,101959.17
2023-01-12T04:27:00.347Z,101961.98
2023-01-12T04:29:28.729Z,101952.15
2023-01-12T04:31:57.726Z,101949.48
2023-01-12T04:34:26.113Z,101956.16
2023-01-12T04:36:54.805Z,101963.52
2023-01-12T04:39:23.291Z,101960.34
2023-01-12T04:41:51.576Z,101954.52
2023-01-12T04:44:20.520Z,101952.06
2023-01-12T04:46:49.750Z,101953.58
2023-01-12T04:49:18.265Z,101956.67
2023-01-12T04:51:46.546Z,101959.77
2023-01-12T04:54:14.722Z,101966.19
2023-01-12T04:56:43.011Z,101978.60
2023-01-12T04:59:11.815Z,101985.75
2023-01-12T05:01:40.208Z,101989.05
2023-01-12T05:04:08.928Z,101989.53
2023-01-12T05:06:37.261Z,101993.90
2023-01-12T05:09:24.803Z,101991.63
2023-01-12T05:11:52.906Z,101986.52
2023-01-12T05:14:21.243Z,101985.12
2023-01-12T05:16:49.686Z,101984.23
2023-01-12T05:19:18.125Z,101984.58
2023-01-12T05:21:46.291Z,101989.83
2023-01-12T05:24:14.481Z,101993.17
2023-01-12T05:26:42.858Z,101999.48
2023-01-12T05:29:13.905Z,102004.38
2023-01-12T05:31:42.593Z,101993.48
2023-01-12T05:34:10.875Z,101985.21
2023-01-12T05:36:39.568Z,101988.15
2023-01-12T05:39:07.951Z,101986.55
2023-01-12T05:41:36.439Z,101984.79
2023-01-12T05:44:04.719Z,101986.71
2023-01-12T05:46:40.480Z,101991.39
2023-01-12T05:49:11.319Z,102003.96
2023-01-12T05:51:39.497Z,102008.29
2023-01-12T05:54:07.776Z,102003.90
2023-01-12T05:56:36.261Z,102008.77
2023-01-12T05:59:04.866Z,101999.92
2023-01-12T06:01:33.031Z,101997.25
2023-01-12T06:04:02.052Z,101992.80
2023-01-12T06:06:31.921Z,101990.88
2023-01-12T06:09:01.772Z,101991.59
2023-01-12T06:11:49.189Z,101987.95
2023-01-12T06:14:17.690Z,101985.51
2023-01-12T06:16:46.055Z,101984.85
2023-01-12T06:19:14.246Z,101988.60
2023-01-12T06:21:42.618Z,102001.99
2023-01-12T06:24:11.013Z,102004.35
2023-01-12T06:26:39.390Z,102003.54
2023-01-12T06:29:07.774Z,102011.52
2023-01-12T06:31:37.285Z,102006.52
2023-01-12T06:34:08.020Z,102003.39
2023-01-12T06:36:36.325Z,102008.18
2023-01-12T06:39:05.479Z,102015.05
2023-01-12T06:41:54.053Z,102023.32
2023-01-12T06:44:22.850Z,102031.73
2023-01-12T06:46:51.330Z,102034.88
2023-01-12T06:49:20.033Z,102028.57
2023-01-12T06:51:51.565Z,102021.18
2023-01-12T06:54:20.446Z,102021.30
2023-01-12T06:56:48.762Z,102032.67
2023-01-12T06:59:17.552Z,102033.86
2023-01-12T07:01:46.125Z,102035.61
2023-01-12T07:04:14.680Z,102039.66
2023-01-12T07:06:42.921Z,102035.03
2023-01-12T07:09:11.397Z,102036.77
2023-01-12T07:11:39.784Z,102032.55
2023-01-12T07:14:09.304Z,102034.64
2023-01-12T07:16:38.298Z,102041.10
2023-01-12T07:19:06.673Z,102047.50
2023-01-12T07:21:34.860Z,102052.50
2023-01-12T07:24:03.347Z,102053.15
2023-01-12T07:26:31.625Z,102051.27
2023-01-12T07:28:59.918Z,102042.70
2023-01-12T07:31:28.680Z,102047.05
2023-01-12T07:33:57.293Z,102042.81
2023-01-12T07:36:26.093Z,102024.54
2023-01-12T07:38:54.572Z,102023.24
2023-01-12T07:41:41.705Z,102033.92
2023-01-12T07:44:10.296Z,102043.45
2023-01-12T07:46:38.840Z,102048.02
2023-01-12T07:49:07.153Z,102031.83
2023-01-12T07:51:35.651Z,102021.58
2023-01-12T07:54:03.910Z,102035.61
2023-01-12T07:56:32.610Z,102038.65
2023-01-12T07:59:01.976Z,102031.20
2023-01-12T08:01:32.787Z,102023.73
2023-01-12T08:04:01.234Z,102020.44
2023-01-12T08:06:30.537Z,102023.58
2023-01-12T08:08:59.539Z,102027.05
2023-01-12T08:11:27.829Z,102039.30
2023-01-12T08:13:57.632Z,102046.08
2023-01-12T08:16:32.136Z,102051.66
2023-01-12T08:19:09.963Z,102051.07
2023-01-12T08:21:46.275Z,102054.52
2023-01-12T08:24:24.650Z,102053.23
2023-01-12T08:26:56.600Z,102056.14
2023-01-12T08:29:34.320Z,102049.56
2023-01-12T08:32:12.778Z,102045.50
2023-01-12T08:34:47.076Z,102049.34
2023-01-12T08:37:18.728Z,102057.83
2023-01-12T08:39:47.756Z,102056.53
2023-01-12T08:42:16.076Z,102049.94
2023-01-12T08:44:45.482Z,102047.59
2023-01-12T08:47:23.092Z,102047.98
2023-01-12T08:49:51.258Z,102044.55
2023-01-12T08:52:19.743Z,102053.90
2023-01-12T08:54:48.334Z,102059.71
2023-01-12T08:57:17.125Z,102055.89
2023-01-12T08:59:45.652Z,102060.60
2023-01-12T09:02:15.757Z,102072.42
2023-01-12T09:04:45.451Z,102080.98
2023-01-12T09:07:14.193Z,102070.69
2023-01-12T09:09:42.330Z,102075.72
2023-01-12T09:12:10.920Z,102066.58
2023-01-12T09:14:39.403Z,102056.71
2023-01-12T09:17:08.498Z,102060.85
2023-01-12T09:19:36.679Z,102063.42
2023-01-12T09:22:05.284Z,102060.08
2023-01-12T09:24:33.446Z,102050.81
2023-01-12T09:27:01.734Z,102050.96
2023-01-12T09:29:30.217Z,102053.98
2023-01-12T09:31:58.994Z,102056.71
2023-01-12T09:34:27.828Z,102049.39
2023-01-12T09:36:57.315Z,102041.70
2023-01-12T09:39:28.924Z,102042.86
2023-01-12T09:42:17.950Z,102039.02
2023-01-12T09:45:09.242Z,102032.71
2023-01-12T09:47:57.370Z,102031.57
2023-01-12T09:50:32.308Z,102027.57
2023-01-12T09:53:10.997Z,102020.08
2023-01-12T09:55:52.001Z,102018.17
2023-01-12T09:58:30.419Z,102009.33
2023-01-12T10:01:01.596Z,102005.05
2023-01-12T10:03:38.865Z,102003.02
2023-01-12T10:06:14.496Z,102001.36
2023-01-12T10:08:44.927Z,102004.33
2023-01-12T10:11:41.256Z,102000.27
2023-01-12T10:14:33.885Z,101992.94
2023-01-12T10:17:25.618Z,101984.98
2023-01-12T10:20:14.832Z,101983.73
2023-01-12T10:22:49.086Z,101980.63
2023-01-12T10:25:29.538Z,101982.30
2023-01-12T10:28:00.558Z,101986.44
2023-01-12T10:30:38.895Z,101990.28
2023-01-12T10:33:17.283Z,101981.20
2023-01-12T10:35:59.419Z,101980.95
2023-01-12T10:38:31.676Z,101986.13
2023-01-12T10:41:19.308Z,101988.48
2023-01-12T10:44:07.926Z,101978.05
2023-01-12T10:46:36.743Z,101965.17
2023-01-12T10:49:19.308Z,101966.41
2023-01-12T10:51:55.061Z,101960.86
2023-01-12T10:54:28.434Z,101964.70
2023-01-12T10:57:04.977Z,101961.05
2023-01-12T10:59:35.817Z,101945.73
2023-01-12T11:02:08.737Z,101931.38
2023-01-12T11:04:46.926Z,101937.71
2023-01-12T11:07:22.464Z,101952.09
2023-01-12T11:09:50.945Z,101942.45
2023-01-12T11:12:21.375Z,101934.67
2023-01-12T11:15:18.265Z,101934.46
2023-01-12T11:18:08.907Z,101929.42
2023-01-12T11:20:43.636Z,101928.17
2023-01-12T11:23:19.959Z,101917.05
2023-01-12T11:25:51.168Z,101917.46
2023-01-12T11:28:26.382Z,101922.00
2023-01-12T11:31:17.081Z,101915.90
2023-01-12T11:33:50.689Z,101910.07
2023-01-12T11:36:21.008Z,101904.91
2023-01-12T11:38:53.903Z,101907.27
2023-01-12T11:41:40.703Z,101909.98
2023-01-12T11:44:31.109Z,101906.94
2023-01-12T11:47:11.239Z,101908.65
2023-01-12T11:49:47.918Z,101912.90
2023-01-12T11:52:17.016Z,101912.09
2023-01-12T11:54:45.301Z,101911.14
2023-01-12T11:57:28.908Z,101911.13
2023-01-12T12:00:12.458Z,101905.48
2023-01-12T12:03:03.491Z,101905.63
2023-01-12T12:06:00.123Z,101903.83
2023-01-12T12:08:45.767Z,101898.52
2023-01-12T12:11:19.883Z,101901.39
2023-01-12T12:13:51.281Z,101903.54
2023-01-12T12:16:42.336Z,101905.20
2023-01-12T12:19:26.833Z,101903.71
2023-01-12T12:22:20.883Z,101902.17
2023-01-12T12:24:58.041Z,101904.11
2023-01-12T12:27:32.265Z,101902.23
2023-01-12T12:30:07.570Z,101896.68
2023-01-12T12:32:49.190Z,101894.34
2023-01-12T12:35:34.148Z,101892.71
2023-01-12T12:38:11.340Z,101891.72
2023-01-12T12:41:14.003Z,101897.42
2023-01-12T12:44:01.115Z,101889.73
2023-01-12T12:46:57.440Z,101888.06
2023-01-12T12:49:32.915Z,101892.52
2023-01-12T12:52:02.353Z,101888.46
2023-01-12T12:54:31.868Z,101888.17
2023-01-12T12:57:00.476Z,101891.41
2023-01-12T12:59:31.846Z,101896.05
2023-01-12T13:02:02.223Z,101894.11
2023-01-12T13:04:43.242Z,101893.79
2023-01-12T13:07:16.848Z,101895.37
2023-01-12T13:09:46.773Z,101890.29
2023-01-12T13:12:33.575Z,101895.45
2023-01-12T13:15:20.275Z,101894.48
2023-01-12T13:17:52.892Z,101903.04
2023-01-12T13:20:36.446Z,101902.95
2023-01-12T13:23:44.899Z,101906.34
2023-01-12T13:26:41.249Z,101909.94
2023-01-12T13:29:25.059Z,101908.52
2023-01-12T13:32:19.248Z,101905.83
2023-01-12T13:34:47.502Z,101906.63
2023-01-12T13:37:29.894Z,101905.46
2023-01-12T13:40:16.825Z,101911.06
2023-01-12T13:43:04.852Z,101912.63
2023-01-12T13:45:34.002Z,101916.27
2023-01-12T13:48:07.376Z,101914.61
2023-01-12T13:50:36.749Z,101920.17
2023-01-12T13:53:04.928Z,101923.54
2023-01-12T13:55:36.184Z,101923.14
2023-01-12T13:58:15.548Z,101920.95
2023-01-12T14:00:54.583Z,101921.76
2023-01-12T14:04:09.386Z,101920.79
2023-01-12T14:07:12.255Z,101920.09
2023-01-12T14:10:23.332Z,101913.53
2023-01-12T14:13:18.814Z,101915.10
2023-01-12T14:16:06.184Z,101918.36
2023-01-12T14:18:45.997Z,101913.82
2023-01-12T14:21:27.468Z,101915.74
2023-01-12T14:24:16.628Z,101921.58
2023-01-12T14:26:44.805Z,101927.99
2023-01-12T14:29:13.451Z,101930.73
2023-01-12T14:31:50.538Z,101929.64
2023-01-12T14:34:35.919Z,101932.93
2023-01-12T14:37:22.135Z,101934.85
2023-01-12T14:39:50.632Z,101938.56
2023-01-12T14:42:39.372Z,101937.04
2023-01-12T14:45:46.849Z,101934.62
2023-01-12T14:48:31.100Z,101938.60
2023-01-12T14:51:24.040Z,101939.27
2023-01-12T14:54:21.395Z,101936.77
2023-01-12T14:56:59.900Z,101939.19
2023-01-12T14:59:35.186Z,101941.81
2023-01-12T15:02:12.945Z,101943.48
2023-01-12T15:04:57.090Z,101944.23
2023-01-12T15:07:29.663Z,101935.61
2023-01-12T15:10:04.190Z,101932.27
2023-01-12T15:12:32.367Z,101934.63
2023-01-12T15:15:21.318Z,101935.55
2023-01-12T15:18:10.905Z,101933.00
2023-01-12T15:21:01.068Z,101927.73
2023-01-12T15:23:51.471Z,101934.73
2023-01-12T15:26:20.734Z,101934.48
2023-01-12T15:28:49.797Z,101933.33
2023-01-12T15:31:27.406Z,101933.92
2023-01-12T15:33:57.324Z,101932.55
2023-01-12T15:36:25.662Z,101928.19
2023-01-12T15:38:54.264Z,101928.91
2023-01-12T15:41:45.881Z,101935.62
2023-01-12T15:44:16.870Z,101946.73
2023-01-12T15:46:45.394Z,101943.08
2023-01-12T15:49:14.789Z,101933.83
2023-01-12T15:51:50.058Z,101938.71
2023-01-12T15:54:20.473Z,101935.61
2023-01-12T15:56:49.425Z,101937.36
2023-01-12T15:59:17.868Z,101944.17
2023-01-12T16:01:50.080Z,101945.57
2023-01-12T16:04:42.180Z,101942.16
2023-01-12T16:07:10.957Z,101939.97
2023-01-12T16:09:41.271Z,101934.62
2023-01-12T16:12:10.602Z,101936.80
2023-01-12T16:14:38.862Z,101942.55
2023-01-12T16:17:07.246Z,101938.91
2023-01-12T16:19:41.373Z,101943.75
2023-01-12T16:22:28.105Z,101945.98
2023-01-12T16:24:56.995Z,101948.15
2023-01-12T16:27:27.081Z,101946.19
2023-01-12T16:29:56.798Z,101947.86
2023-01-12T16:32:26.987Z,101950.35
2023-01-12T16:34:56.019Z,101950.17
2023-01-12T16:37:27.629Z,101955.53
2023-01-12T16:39:56.168Z,101951.96
2023-01-12T16:42:24.552Z,101948.95
2023-01-12T16:44:53.160Z,101951.30
2023-01-12T16:47:21.844Z,101948.84
2023-01-12T16:49:51.420Z,101949.64
2023-01-12T16:52:21.983Z,101941.44
2023-01-12T16:54:50.174Z,101943.05
2023-01-12T16:57:19.108Z,101939.16
2023-01-12T16:59:47.542Z,101934.63
2023-01-12T17:02:18.077Z,101936.98
2023-01-12T17:04:49.224Z,101935.39
2023-01-12T17:07:18.116Z,101940.34
2023-01-12T17:09:46.833Z,101940.89
2023-01-12T17:12:15.616Z,101942.25
2023-01-12T17:14:44.093Z,101939.54
2023-01-12T17:17:13.042Z,101943.32
2023-01-12T17:19:44.937Z,101947.65
2023-01-12T17:22:13.650Z,101943.95
2023-01-12T17:24:42.355Z,101940.51
2023-01-12T17:27:10.930Z,101946.62
2023-01-12T17:29:39.905Z,101949.60
2023-01-12T17:32:08.933Z,101948.73
2023-01-12T17:34:39.452Z,101947.31
2023-01-12T17:37:08.861Z,101951.85
2023-01-12T17:39:48.521Z,101951.86
2023-01-12T17:42:37.353Z,101954.16
2023-01-12T17:45:07.328Z,101959.41
2023-01-12T17:47:35.834Z,101960.73
2023-01-12T17:50:04.427Z,101960.83
2023-01-12T17:52:32.636Z,101960.77
2023-01-12T17:55:00.920Z,101964.73
2023-01-12T17:57:30.133Z,101968.14
2023-01-12T17:59:58.840Z,101970.01
2023-01-12T18:02:27.397Z,101968.27
2023-01-12T18:04:56.813Z,101968.98
2023-01-12T18:07:25.091Z,101967.84
2023-01-12T18:09:53.480Z,101969.19
2023-01-12T18:12:23.187Z,101967.02
2023-01-12T18:14:51.368Z,101968.45
2023-01-12T18:17:19.758Z,101968.00
2023-01-12T18:19:48.053Z,101967.95
2023-01-12T18:22:16.212Z,101959.44
2023-01-12T18:24:44.401Z,101961.13
2023-01-12T18:27:12.574Z,101963.36
2023-01-12T18:29:41.697Z,101962.35
2023-01-12T18:32:10.264Z,101959.77
2023-01-12T18:34:41.921Z,101962.27
2023-01-12T18:37:12.785Z,101959.36
2023-01-12T18:39:44.230Z,101958.41
2023-01-12T18:42:31.130Z,101956.17
2023-01-12T18:45:25.297Z,101953.92
2023-01-12T18:48:12.319Z,101955.69
2023-01-12T18:50:59.728Z,101954.77
2023-01-12T18:53:31.893Z,101957.64
2023-01-12T18:56:03.211Z,101956.73
2023-01-12T18:58:34.314Z,101960.48
2023-01-12T19:01:18.632Z,101959.11
2023-01-12T19:03:47.434Z,101954.18
2023-01-12T19:06:23.856Z,101952.22
2023-01-12T19:09:11.841Z,101949.70
2023-01-12T19:11:41.804Z,101946.98
2023-01-12T19:14:28.976Z,101947.77
2023-01-12T19:17:15.874Z,101949.45
2023-01-12T19:19:44.261Z,101954.66
2023-01-12T19:22:31.068Z,101957.56
2023-01-12T19:25:17.871Z,101959.02
2023-01-12T19:28:05.699Z,101959.73
2023-01-12T19:30:36.333Z,101960.55
2023-01-12T19:33:09.194Z,101959.25
2023-01-12T19:35:37.917Z,101959.19
2023-01-12T19:38:06.819Z,101959.81
2023-01-12T19:40:45.632Z,101962.05
2023-01-12T19:43:29.272Z,101960.54
2023-01-12T19:46:00.722Z,101964.41
2023-01-12T19:48:29.625Z,101963.62
2023-01-12T19:51:10.422Z,101964.37
2023-01-12T19:53:40.402Z,101968.56
2023-01-12T19:56:10.670Z,101976.80
2023-01-12T19:58:39.432Z,101975.17
2023-01-12T20:01:08.280Z,101971.52
2023-01-12T20:03:39.907Z,101972.82
2023-01-12T20:06:08.798Z,101968.30
2023-01-12T20:08:37.156Z,101968.34
2023-01-12T20:11:06.260Z,101965.07
2023-01-12T20:13:35.788Z,101964.73
2023-01-12T20:16:08.917Z,101962.09
2023-01-12T20:18:37.713Z,101960.29
2023-01-12T20:21:11.680Z,101961.13
2023-01-12T20:23:40.058Z,101964.25
2023-01-12T20:26:11.457Z,101964.52
2023-01-12T20:28:40.501Z,101961.54
2023-01-12T20:31:11.470Z,101966.81
2023-01-12T20:33:40.597Z,101967.14
2023-01-12T20:36:11.543Z,101962.94
2023-01-12T20:38:41.191Z,101964.27
2023-01-12T20:41:10.514Z,101958.83
2023-01-12T20:43:39.113Z,101963.44
2023-01-12T20:46:09.851Z,101958.40
2023-01-12T20:48:41.516Z,101956.00
2023-01-12T20:51:11.899Z,101956.15
2023-01-12T20:53:40.310Z,101953.30
2023-01-12T20:56:09.209Z,101956.96
2023-01-12T20:58:37.803Z,101956.79
2023-01-12T21:01:15.360Z,101953.77
2023-01-12T21:03:44.370Z,101957.81
2023-01-12T21:06:15.847Z,101958.48
2023-01-12T21:08:45.837Z,101959.82
2023-01-12T21:11:17.443Z,101957.34
2023-01-12T21:13:46.397Z,101954.70
2023-01-12T21:16:18.212Z,101954.19
2023-01-12T21:18:47.048Z,101956.68
2023-01-12T21:21:15.357Z,101951.68
2023-01-12T21:23:43.748Z,101952.25
2023-01-12T21:26:12.329Z,101943.08
2023-01-12T21:28:41.190Z,101944.07
2023-01-12T21:31:12.711Z,101943.63
2023-01-12T21:33:41.586Z,101939.17
2023-01-12T21:36:12.788Z,101941.27
2023-01-12T21:38:41.344Z,101939.75
2023-01-12T21:41:11.652Z,101933.30
2023-01-12T21:43:40.129Z,101932.52
2023-01-12T21:46:11.973Z,101938.41
2023-01-12T21:48:40.277Z,101934.19
2023-01-12T21:51:12.046Z,101934.73
2023-01-12T21:53:42.126Z,101940.25
2023-01-12T21:56:13.003Z,101938.93
2023-01-12T21:58:41.795Z,101938.43
2023-01-12T22:01:12.709Z,101935.78
2023-01-12T22:03:41.723Z,101932.83
2023-01-12T22:06:12.498Z,101928.45
2023-01-12T22:08:42.046Z,101920.85
2023-01-12T22:11:15.533Z,101917.50
2023-01-12T22:13:43.984Z,101914.88
2023-01-12T22:16:14.859Z,101909.23
2023-01-12T22:18:46.607Z,101911.60
2023-01-12T22:21:16.513Z,101907.36
2023-01-12T22:23:45.090Z,101909.04
2023-01-12T22:26:15.526Z,101903.59
2023-01-12T22:28:45.560Z,101902.17
2023-01-12T22:31:20.582Z,101898.92
2023-01-12T22:34:06.769Z,101897.64
2023-01-12T22:36:43.066Z,101893.87
2023-01-12T22:39:13.321Z,101891.73
2023-01-12T22:41:42.149Z,101887.71
2023-01-12T22:44:11.149Z,101887.14
2023-01-12T22:46:41.172Z,101883.48
2023-01-12T22:49:09.361Z,101882.98
2023-01-12T22:51:39.380Z,101877.22
2023-01-12T22:54:07.558Z,101873.63
2023-01-12T22:56:39.111Z,101870.25
2023-01-12T22:59:10.005Z,101871.13
2023-01-12T23:01:38.945Z,101865.47
2023-01-12T23:04:11.433Z,101864.54
2023-01-12T23:06:41.029Z,101860.80
2023-01-12T23:09:11.806Z,101857.70
2023-01-12T23:11:40.499Z,101857.83
2023-01-12T23:14:09.060Z,101854.40
2023-01-12T23:16:37.337Z,101852.80
2023-01-12T23:19:05.527Z,101851.50
2023-01-12T23:21:35.687Z,101846.78
2023-01-12T23:24:04.033Z,101841.22
2023-01-12T23:26:33.090Z,101839.09
2023-01-12T23:29:03.415Z,101837.39
2023-01-12T23:31:33.651Z,101836.68
2023-01-12T23:34:02.952Z,101837.89
2023-01-12T23:36:31.699Z,101837.12
2023-01-12T23:39:03.145Z,101841.88
2023-01-12T23:41:34.171Z,101837.30
2023-01-12T23:44:05.431Z,101837.29
2023-01-12T23:46:37.241Z,101839.22
2023-01-12T23:49:06.078Z,101836.20
2023-01-12T23:51:36.411Z,101827.25
2023-01-12T23:54:05.064Z,101825.72
2023-01-12T23:56:34.746Z,101825.77
2023-01-12T23:59:03.304Z,101826.56
